Time;durP1;ratioP1;P1;durP2;ratioP2;P2;SDS_P1;SDS_P2;PMS_P1;PMS_P2;Temp;Humidity;BMP_temperature;BMP_pressure;BME280_temperature;BME280_humidity;BME280_pressure;Samples;Min_cycle;Max_cycle;Signal;HPM_P1;HPM_P2
2023/07/30 00:01:22;;;;;;;3.33;1.08;;;;;;;;;;5065715;28;20472;-87
2023/07/30 00:03:51;;;;;;;1.88;1.15;;;;;;;;;;5064335;28;20041;-89
2023/07/30 00:06:19;;;;;;;2.40;1.17;;;;;;;;;;5061270;28;20049;-91
2023/07/30 00:08:49;;;;;;;2.85;1.20;;;;;;;;;;5065260;28;20431;-91
2023/07/30 00:11:17;;;;;;;3.60;1.40;;;;;;;;;;5064657;28;20118;-91
2023/07/30 00:13:47;;;;;;;5.22;1.40;;;;;;;;;;5064484;28;20040;-91
2023/07/30 00:16:15;;;;;;;1.85;1.27;;;;;;;;;;5059779;28;20106;-92
2023/07/30 00:18:44;;;;;;;4.78;1.25;;;;;;;;;;5063970;28;20315;-92
2023/07/30 00:21:12;;;;;;;1.60;1.15;;;;;;;;;;5063928;28;20040;-91
2023/07/30 00:23:40;;;;;;;1.60;1.10;;;;;;;;;;5064169;28;20090;-92
2023/07/30 00:26:10;;;;;;;3.20;1.10;;;;;;;;;;5061160;28;20053;-91
2023/07/30 00:28:39;;;;;;;4.55;1.48;;;;;;;;;;5064193;28;20072;-90
2023/07/30 00:31:07;;;;;;;2.75;1.13;;;;;;;;;;5058435;28;20041;-91
2023/07/30 00:33:35;;;;;;;5.68;1.15;;;;;;;;;;5063677;28;20478;-91
2023/07/30 00:36:04;;;;;;;2.63;1.30;;;;;;;;;;5065417;28;20052;-92
2023/07/30 00:38:32;;;;;;;2.25;1.15;;;;;;;;;;5063447;28;20083;-91
2023/07/30 00:41:01;;;;;;;2.30;1.00;;;;;;;;;;5059580;28;20052;-91
2023/07/30 00:43:30;;;;;;;1.73;1.20;;;;;;;;;;5065209;28;20048;-91
2023/07/30 00:45:59;;;;;;;2.92;1.13;;;;;;;;;;5064156;28;20068;-91
2023/07/30 00:48:27;;;;;;;1.98;1.27;;;;;;;;;;5063471;28;20084;-91
2023/07/30 00:50:55;;;;;;;2.05;1.20;;;;;;;;;;5060785;28;20045;-91
2023/07/30 00:53:25;;;;;;;4.90;1.30;;;;;;;;;;5064598;28;20051;-91
2023/07/30 00:55:54;;;;;;;3.60;1.10;;;;;;;;;;5064402;28;20076;-91
2023/07/30 00:58:22;;;;;;;4.38;1.30;;;;;;;;;;5063918;28;20105;-91
2023/07/30 01:00:53;;;;;;;1.52;1.00;;;;;;;;;;5063904;28;20564;-91
2023/07/30 01:03:22;;;;;;;2.83;1.35;;;;;;;;;;5105275;22;20574;-60
2023/07/30 01:05:50;;;;;;;2.35;1.25;;;;;;;;;;5099941;28;20101;-62
2023/07/30 01:08:18;;;;;;;1.98;1.15;;;;;;;;;;5103058;28;20093;-62
2023/07/30 01:10:47;;;;;;;1.42;1.02;;;;;;;;;;5103002;28;20130;-61
2023/07/30 01:13:17;;;;;;;1.63;1.15;;;;;;;;;;5105731;27;20071;-60
2023/07/30 01:15:45;;;;;;;5.20;1.08;;;;;;;;;;5107940;27;20489;-60
2023/07/30 01:18:15;;;;;;;3.00;1.52;;;;;;;;;;5103811;28;20047;-61
2023/07/30 01:20:44;;;;;;;3.92;1.23;;;;;;;;;;5092931;28;20144;-61
2023/07/30 01:23:13;;;;;;;1.58;1.08;;;;;;;;;;5099868;28;20085;-61
2023/07/30 01:25:43;;;;;;;4.28;1.10;;;;;;;;;;5099568;28;20389;-62
2023/07/30 01:28:14;;;;;;;3.08;1.02;;;;;;;;;;5084562;28;20040;-60
2023/07/30 01:30:43;;;;;;;2.05;1.15;;;;;;;;;;5087707;27;20486;-61
2023/07/30 01:33:12;;;;;;;4.38;1.25;;;;;;;;;;5104724;28;20047;-61
2023/07/30 01:35:42;;;;;;;2.60;1.40;;;;;;;;;;5100948;27;20507;-61
2023/07/30 01:38:11;;;;;;;1.20;0.80;;;;;;;;;;5102597;28;20036;-60
2023/07/30 01:40:41;;;;;;;2.40;1.27;;;;;;;;;;5099060;28;20084;-66
2023/07/30 01:43:09;;;;;;;1.70;1.00;;;;;;;;;;5094316;28;20091;-61
2023/07/30 01:45:38;;;;;;;8.35;1.33;;;;;;;;;;5105866;28;20040;-62
2023/07/30 01:48:07;;;;;;;1.92;1.25;;;;;;;;;;5104394;28;20043;-62
2023/07/30 01:50:35;;;;;;;2.05;1.38;;;;;;;;;;5099952;27;20101;-58
2023/07/30 01:53:03;;;;;;;3.08;0.90;;;;;;;;;;5107713;28;20457;-60
2023/07/30 01:55:32;;;;;;;3.45;1.10;;;;;;;;;;5106661;28;20083;-63
2023/07/30 01:58:01;;;;;;;2.88;0.90;;;;;;;;;;5094220;28;20109;-62
2023/07/30 02:00:30;;;;;;;1.50;1.02;;;;;;;;;;5103874;27;20461;-61
2023/07/30 02:02:58;;;;;;;2.55;1.00;;;;;;;;;;5103302;27;20052;-61
2023/07/30 02:05:26;;;;;;;1.95;1.02;;;;;;;;;;5106708;28;20051;-63
2023/07/30 02:07:55;;;;;;;4.10;1.70;;;;;;;;;;5104959;27;20070;-60
2023/07/30 02:10:23;;;;;;;1.55;0.98;;;;;;;;;;5101383;28;20036;-63
2023/07/30 02:12:52;;;;;;;2.17;1.27;;;;;;;;;;5102964;28;20054;-64
2023/07/30 02:15:21;;;;;;;2.50;1.08;;;;;;;;;;5106648;28;20381;-61
2023/07/30 02:17:50;;;;;;;1.60;1.00;;;;;;;;;;5104991;27;20047;-61
2023/07/30 02:20:18;;;;;;;4.38;1.05;;;;;;;;;;5105171;28;20069;-60
2023/07/30 02:22:47;;;;;;;3.42;1.17;;;;;;;;;;5097577;28;20079;-62
2023/07/30 02:25:16;;;;;;;4.60;1.20;;;;;;;;;;5103154;27;20097;-62
2023/07/30 02:27:44;;;;;;;1.40;0.98;;;;;;;;;;5107190;28;20054;-61
2023/07/30 02:30:12;;;;;;;5.20;1.30;;;;;;;;;;5092877;28;20466;-60
2023/07/30 02:32:43;;;;;;;2.97;1.50;;;;;;;;;;5107298;28;20088;-60
2023/07/30 02:35:11;;;;;;;2.78;1.20;;;;;;;;;;5107121;28;20044;-68
2023/07/30 02:37:39;;;;;;;7.07;1.60;;;;;;;;;;5100151;28;20210;-62
2023/07/30 02:40:08;;;;;;;3.17;1.50;;;;;;;;;;5085129;28;20072;-61
2023/07/30 02:42:37;;;;;;;6.13;1.42;;;;;;;;;;5104037;28;20116;-63
2023/07/30 02:45:06;;;;;;;3.22;1.50;;;;;;;;;;5100741;28;20055;-60
2023/07/30 02:47:34;;;;;;;3.80;1.67;;;;;;;;;;5103824;28;20148;-60
2023/07/30 02:50:04;;;;;;;4.93;1.55;;;;;;;;;;5104046;28;20051;-61
2023/07/30 02:52:33;;;;;;;4.72;1.58;;;;;;;;;;5102990;28;20047;-60
2023/07/30 02:55:01;;;;;;;4.45;1.90;;;;;;;;;;5102780;28;20118;-60
2023/07/30 02:57:29;;;;;;;2.55;1.60;;;;;;;;;;5098269;28;20043;-62
2023/07/30 02:59:58;;;;;;;2.97;1.20;;;;;;;;;;5097307;28;20043;-60
2023/07/30 03:02:26;;;;;;;4.03;1.77;;;;;;;;;;5107786;28;20070;-63
2023/07/30 03:04:55;;;;;;;2.58;1.58;;;;;;;;;;5102285;28;20056;-60
2023/07/30 03:07:26;;;;;;;2.03;1.45;;;;;;;;;;5105195;28;20564;-60
2023/07/30 03:09:54;;;;;;;2.35;1.50;;;;;;;;;;5094986;28;20043;-60
2023/07/30 03:12:23;;;;;;;3.13;1.35;;;;;;;;;;5102156;28;20068;-60
2023/07/30 03:14:51;;;;;;;3.03;1.50;;;;;;;;;;5102120;28;20040;-60
2023/07/30 03:17:19;;;;;;;3.70;1.88;;;;;;;;;;5107130;28;20514;-60
2023/07/30 03:19:48;;;;;;;3.13;1.50;;;;;;;;;;5096133;28;20051;-60
2023/07/30 03:22:17;;;;;;;4.10;1.50;;;;;;;;;;5105974;28;20195;-60
2023/07/30 03:24:48;;;;;;;3.28;1.45;;;;;;;;;;5102267;28;20101;-61
2023/07/30 03:27:17;;;;;;;4.40;1.48;;;;;;;;;;5103862;28;20100;-62
2023/07/30 03:29:45;;;;;;;3.53;1.75;;;;;;;;;;5103317;28;20116;-60
2023/07/30 03:32:13;;;;;;;3.95;1.52;;;;;;;;;;5097086;28;20519;-61
2023/07/30 03:34:42;;;;;;;2.50;1.45;;;;;;;;;;5090994;28;20080;-60
2023/07/30 03:37:10;;;;;;;3.00;1.77;;;;;;;;;;5097718;28;20484;-63
2023/07/30 03:39:38;;;;;;;3.03;1.52;;;;;;;;;;5104083;28;20048;-60
2023/07/30 03:42:08;;;;;;;2.63;1.58;;;;;;;;;;5102076;28;20492;-59
2023/07/30 03:44:37;;;;;;;2.20;1.40;;;;;;;;;;5101810;28;20051;-60
2023/07/30 03:47:05;;;;;;;2.55;1.55;;;;;;;;;;5099768;28;20047;-60
2023/07/30 03:49:33;;;;;;;3.47;1.70;;;;;;;;;;5090515;28;20044;-62
2023/07/30 03:52:02;;;;;;;4.03;1.77;;;;;;;;;;5092014;28;20446;-63
2023/07/30 03:54:30;;;;;;;4.20;1.48;;;;;;;;;;5097528;28;20501;-60
2023/07/30 03:56:58;;;;;;;2.20;1.40;;;;;;;;;;5099209;28;20528;-60
2023/07/30 03:59:29;;;;;;;2.53;1.70;;;;;;;;;;5096071;28;20058;-62
2023/07/30 04:01:57;;;;;;;5.22;1.73;;;;;;;;;;5093997;28;20491;-60
2023/07/30 04:04:26;;;;;;;3.40;1.73;;;;;;;;;;5112125;27;20052;-60
2023/07/30 04:06:54;;;;;;;4.97;1.70;;;;;;;;;;5109930;27;20090;-60
2023/07/30 04:09:23;;;;;;;4.72;1.38;;;;;;;;;;5111856;27;20444;-60
2023/07/30 04:11:52;;;;;;;3.25;1.27;;;;;;;;;;5116829;27;20047;-60
2023/07/30 04:14:20;;;;;;;2.30;1.30;;;;;;;;;;5124672;27;20100;-62
2023/07/30 04:16:50;;;;;;;3.45;1.75;;;;;;;;;;5111655;27;20491;-61
2023/07/30 04:19:19;;;;;;;3.60;1.98;;;;;;;;;;5111496;27;20090;-61
2023/07/30 04:21:47;;;;;;;5.80;2.78;;;;;;;;;;5111820;27;20047;-61
2023/07/30 04:24:15;;;;;;;6.57;3.03;;;;;;;;;;5112044;27;20117;-61
2023/07/30 04:26:44;;;;;;;3.55;1.58;;;;;;;;;;5117606;27;20503;-61
2023/07/30 04:29:13;;;;;;;5.75;1.60;;;;;;;;;;5113112;27;20043;-61
2023/07/30 04:31:42;;;;;;;3.13;1.83;;;;;;;;;;5115891;27;20040;-60
2023/07/30 04:34:12;;;;;;;2.30;1.60;;;;;;;;;;5113382;27;20063;-60
2023/07/30 04:36:40;;;;;;;2.50;1.40;;;;;;;;;;5111326;27;20483;-60
2023/07/30 04:39:08;;;;;;;3.15;1.40;;;;;;;;;;5111755;27;20143;-61
2023/07/30 04:41:37;;;;;;;3.08;1.42;;;;;;;;;;5113058;27;20105;-60
2023/07/30 04:44:05;;;;;;;4.50;1.50;;;;;;;;;;5111190;27;20104;-60
2023/07/30 04:46:34;;;;;;;6.35;1.92;;;;;;;;;;5111564;27;20071;-60
2023/07/30 04:49:03;;;;;;;4.82;1.35;;;;;;;;;;5115332;27;20071;-61
2023/07/30 04:51:33;;;;;;;3.42;1.83;;;;;;;;;;5122784;27;20054;-61
2023/07/30 04:54:01;;;;;;;2.90;1.55;;;;;;;;;;5113669;27;20063;-60
2023/07/30 04:56:30;;;;;;;3.20;1.80;;;;;;;;;;5112903;27;20487;-63
2023/07/30 04:58:58;;;;;;;5.80;1.65;;;;;;;;;;5116175;27;20067;-60
2023/07/30 05:01:26;;;;;;;4.43;1.65;;;;;;;;;;5117129;27;20044;-60
2023/07/30 05:03:55;;;;;;;2.60;1.48;;;;;;;;;;5109021;27;20043;-60
2023/07/30 05:06:24;;;;;;;5.07;1.90;;;;;;;;;;5105973;28;20054;-62
2023/07/30 05:08:54;;;;;;;2.97;1.33;;;;;;;;;;5105811;27;20152;-64
2023/07/30 05:11:23;;;;;;;3.42;1.75;;;;;;;;;;5100177;28;20043;-61
2023/07/30 05:13:51;;;;;;;2.65;1.48;;;;;;;;;;5102926;28;20055;-60
2023/07/30 05:16:19;;;;;;;2.38;1.60;;;;;;;;;;5105307;27;20110;-63
2023/07/30 05:18:48;;;;;;;4.00;1.85;;;;;;;;;;5100421;28;20051;-60
2023/07/30 05:21:16;;;;;;;2.28;1.17;;;;;;;;;;5109896;28;20343;-62
2023/07/30 05:23:45;;;;;;;2.83;1.52;;;;;;;;;;5091570;27;20494;-60
2023/07/30 05:26:14;;;;;;;2.55;1.48;;;;;;;;;;5105515;27;20104;-60
2023/07/30 05:28:43;;;;;;;1.77;1.33;;;;;;;;;;5099789;27;20074;-60
2023/07/30 05:31:11;;;;;;;2.75;1.50;;;;;;;;;;5100880;27;20472;-62
2023/07/30 05:33:39;;;;;;;2.90;1.67;;;;;;;;;;5098192;28;20058;-61
2023/07/30 05:36:08;;;;;;;2.65;1.67;;;;;;;;;;5103178;28;20488;-61
2023/07/30 05:38:36;;;;;;;4.82;1.75;;;;;;;;;;5096221;28;20576;-61
2023/07/30 05:41:04;;;;;;;2.42;1.58;;;;;;;;;;5099872;28;20124;-62
2023/07/30 05:43:34;;;;;;;3.38;1.48;;;;;;;;;;5103915;27;20512;-62
2023/07/30 05:46:02;;;;;;;2.88;1.50;;;;;;;;;;5101674;28;20097;-63
2023/07/30 05:48:31;;;;;;;2.58;1.63;;;;;;;;;;5100714;27;20404;-63
2023/07/30 05:50:59;;;;;;;4.30;1.73;;;;;;;;;;5103152;28;20628;-61
2023/07/30 05:53:28;;;;;;;2.83;1.50;;;;;;;;;;5102742;27;20128;-60
2023/07/30 05:55:56;;;;;;;3.13;1.65;;;;;;;;;;5090791;27;20553;-61
2023/07/30 05:58:24;;;;;;;2.53;1.42;;;;;;;;;;5104453;28;20075;-62
2023/07/30 06:00:54;;;;;;;2.25;1.55;;;;;;;;;;5094681;28;20043;-60
2023/07/30 06:03:22;;;;;;;3.10;1.90;;;;;;;;;;5103519;27;20434;-60
2023/07/30 06:05:51;;;;;;;2.53;1.30;;;;;;;;;;5094903;28;20052;-63
2023/07/30 06:08:19;;;;;;;2.85;1.83;;;;;;;;;;5099982;28;21477;-60
2023/07/30 06:10:48;;;;;;;2.05;1.33;;;;;;;;;;5093146;28;20442;-62
2023/07/30 06:13:16;;;;;;;3.60;1.27;;;;;;;;;;5091007;28;20124;-60
2023/07/30 06:15:44;;;;;;;3.10;1.50;;;;;;;;;;5103175;27;21006;-59
2023/07/30 06:18:14;;;;;;;2.08;1.40;;;;;;;;;;5100708;27;20423;-66
2023/07/30 06:20:42;;;;;;;2.30;1.48;;;;;;;;;;5102846;28;20044;-60
2023/07/30 06:23:11;;;;;;;2.47;1.20;;;;;;;;;;5091257;28;20473;-59
2023/07/30 06:25:39;;;;;;;2.65;1.60;;;;;;;;;;5099063;28;20736;-60
2023/07/30 06:28:08;;;;;;;3.30;1.73;;;;;;;;;;5104022;28;20087;-60
2023/07/30 06:30:39;;;;;;;2.58;1.38;;;;;;;;;;5084980;27;20056;-62
2023/07/30 06:33:07;;;;;;;2.53;1.75;;;;;;;;;;5100790;28;20050;-63
2023/07/30 06:35:37;;;;;;;3.78;1.52;;;;;;;;;;5095805;28;20070;-66
2023/07/30 06:38:07;;;;;;;2.40;1.48;;;;;;;;;;5104598;27;20411;-62
2023/07/30 06:40:35;;;;;;;2.85;1.70;;;;;;;;;;5101132;27;20495;-66
2023/07/30 06:43:04;;;;;;;5.80;1.95;;;;;;;;;;5104186;28;20040;-62
2023/07/30 06:45:32;;;;;;;2.45;1.48;;;;;;;;;;5094823;28;20522;-63
2023/07/30 06:48:01;;;;;;;2.30;1.42;;;;;;;;;;5105296;28;20415;-67
2023/07/30 06:50:29;;;;;;;2.40;1.40;;;;;;;;;;5099339;28;20523;-62
2023/07/30 06:52:59;;;;;;;2.45;1.20;;;;;;;;;;5104955;28;20473;-63
2023/07/30 06:55:27;;;;;;;3.28;1.48;;;;;;;;;;5096266;28;20127;-65
2023/07/30 06:57:56;;;;;;;2.92;1.83;;;;;;;;;;5101534;27;20135;-66
2023/07/30 07:00:24;;;;;;;2.40;1.40;;;;;;;;;;5102613;28;20088;-64
2023/07/30 07:02:53;;;;;;;2.00;1.20;;;;;;;;;;5100825;28;20682;-60
2023/07/30 07:05:21;;;;;;;2.78;1.50;;;;;;;;;;5103364;28;20044;-61
2023/07/30 07:07:50;;;;;;;2.28;1.55;;;;;;;;;;5101964;28;20058;-61
2023/07/30 07:10:20;;;;;;;2.72;1.40;;;;;;;;;;5102325;28;20100;-62
2023/07/30 07:12:49;;;;;;;2.58;1.30;;;;;;;;;;5102946;28;20108;-63
2023/07/30 07:15:18;;;;;;;3.08;1.50;;;;;;;;;;5092030;28;20040;-62
2023/07/30 07:17:47;;;;;;;2.03;1.30;;;;;;;;;;5104463;28;20040;-61
2023/07/30 07:20:15;;;;;;;3.15;1.65;;;;;;;;;;5092655;28;20079;-67
2023/07/30 07:22:44;;;;;;;3.78;1.17;;;;;;;;;;5099071;28;20479;-61
2023/07/30 07:25:12;;;;;;;2.78;1.50;;;;;;;;;;5100373;28;20478;-61
2023/07/30 07:27:42;;;;;;;3.35;1.60;;;;;;;;;;5099665;28;20052;-63
2023/07/30 07:30:11;;;;;;;2.72;1.67;;;;;;;;;;5103810;28;20430;-61
2023/07/30 07:32:39;;;;;;;2.20;1.50;;;;;;;;;;5087111;28;20040;-61
2023/07/30 07:35:08;;;;;;;3.72;1.27;;;;;;;;;;5099366;28;20055;-62
2023/07/30 07:37:37;;;;;;;2.08;1.40;;;;;;;;;;5092129;28;20101;-64
2023/07/30 07:40:07;;;;;;;1.85;1.20;;;;;;;;;;5088113;28;20047;-64
2023/07/30 07:42:36;;;;;;;3.88;1.30;;;;;;;;;;5096550;28;20132;-70
2023/07/30 07:45:06;;;;;;;2.03;1.17;;;;;;;;;;5100884;28;20074;-63
2023/07/30 07:47:35;;;;;;;1.80;1.10;;;;;;;;;;5099818;28;20126;-63
2023/07/30 07:50:03;;;;;;;1.42;1.10;;;;;;;;;;5096507;28;20052;-61
2023/07/30 07:52:32;;;;;;;4.70;1.70;;;;;;;;;;5103774;27;20377;-63
2023/07/30 07:55:01;;;;;;;4.13;1.48;;;;;;;;;;5104640;28;20142;-61
2023/07/30 07:57:30;;;;;;;1.67;1.23;;;;;;;;;;5101741;27;20132;-64
2023/07/30 07:59:59;;;;;;;2.72;1.63;;;;;;;;;;5094902;28;20372;-63
2023/07/30 08:02:28;;;;;;;2.17;1.25;;;;;;;;;;5102524;27;20055;-64
2023/07/30 08:04:57;;;;;;;3.80;1.58;;;;;;;;;;5092168;28;20055;-62
2023/07/30 08:07:25;;;;;;;1.55;1.10;;;;;;;;;;5093466;28;20355;-62
2023/07/30 08:09:54;;;;;;;1.83;1.38;;;;;;;;;;5087528;27;20702;-63
2023/07/30 08:12:23;;;;;;;1.60;1.17;;;;;;;;;;5096544;27;20073;-61
2023/07/30 08:14:51;;;;;;;1.58;1.10;;;;;;;;;;5105957;27;20376;-63
2023/07/30 08:17:20;;;;;;;2.97;1.30;;;;;;;;;;5096593;28;20453;-64
2023/07/30 08:19:50;;;;;;;1.80;1.30;;;;;;;;;;5094128;27;20131;-61
2023/07/30 08:22:19;;;;;;;2.80;1.40;;;;;;;;;;5102896;27;20184;-65
2023/07/30 08:24:47;;;;;;;1.55;1.10;;;;;;;;;;5094640;27;20533;-62
2023/07/30 08:27:15;;;;;;;2.45;1.40;;;;;;;;;;5083233;28;20554;-64
2023/07/30 08:29:44;;;;;;;2.78;1.30;;;;;;;;;;5094239;28;20706;-63
2023/07/30 08:32:13;;;;;;;2.53;1.50;;;;;;;;;;5103248;28;20127;-62
2023/07/30 08:34:41;;;;;;;1.92;1.30;;;;;;;;;;5098995;27;20397;-63
2023/07/30 08:37:11;;;;;;;2.80;1.45;;;;;;;;;;5095788;28;20051;-63
2023/07/30 08:39:40;;;;;;;2.05;1.35;;;;;;;;;;5086928;28;20439;-63
2023/07/30 08:42:08;;;;;;;2.03;1.20;;;;;;;;;;5096556;28;20046;-62
2023/07/30 08:44:36;;;;;;;2.10;1.30;;;;;;;;;;5096487;28;20055;-62
2023/07/30 08:47:05;;;;;;;2.38;1.13;;;;;;;;;;5098028;28;20036;-62
2023/07/30 08:49:33;;;;;;;2.33;1.00;;;;;;;;;;5096179;28;20136;-62
2023/07/30 08:52:03;;;;;;;1.60;1.30;;;;;;;;;;5092945;28;20579;-65
2023/07/30 08:54:33;;;;;;;1.60;1.17;;;;;;;;;;5097575;28;20055;-64
2023/07/30 08:57:02;;;;;;;2.30;1.50;;;;;;;;;;5098438;28;20048;-62
2023/07/30 08:59:32;;;;;;;1.75;1.23;;;;;;;;;;5102648;28;20075;-61
2023/07/30 09:02:02;;;;;;;5.20;1.42;;;;;;;;;;5094288;28;20076;-64
2023/07/30 09:04:31;;;;;;;2.05;1.30;;;;;;;;;;5103027;28;20046;-63
2023/07/30 09:07:01;;;;;;;2.42;1.05;;;;;;;;;;5107203;28;20043;-65
2023/07/30 09:09:29;;;;;;;2.60;1.40;;;;;;;;;;5105337;28;20470;-63
2023/07/30 09:12:00;;;;;;;1.90;1.00;;;;;;;;;;5094083;28;20101;-63
2023/07/30 09:14:28;;;;;;;2.80;1.17;;;;;;;;;;5104579;28;20423;-64
2023/07/30 09:16:58;;;;;;;2.13;1.27;;;;;;;;;;5098895;28;20055;-62
2023/07/30 09:19:27;;;;;;;3.20;1.67;;;;;;;;;;5096733;28;20185;-63
2023/07/30 09:21:56;;;;;;;1.88;1.27;;;;;;;;;;5099965;28;20048;-64
2023/07/30 09:24:24;;;;;;;1.92;1.25;;;;;;;;;;5086693;28;20051;-62
2023/07/30 09:26:53;;;;;;;2.15;1.17;;;;;;;;;;5102839;28;20047;-63
2023/07/30 09:29:23;;;;;;;2.47;1.25;;;;;;;;;;5099979;27;20499;-62
2023/07/30 09:31:54;;;;;;;2.72;1.38;;;;;;;;;;5101516;28;20525;-61
2023/07/30 09:34:23;;;;;;;2.70;1.52;;;;;;;;;;5099476;27;20043;-61
2023/07/30 09:36:52;;;;;;;1.33;1.00;;;;;;;;;;5101988;27;20077;-62
2023/07/30 09:39:21;;;;;;;1.60;1.10;;;;;;;;;;5098225;28;20056;-62
2023/07/30 09:41:51;;;;;;;5.25;1.10;;;;;;;;;;5091352;27;20047;-63
2023/07/30 09:44:20;;;;;;;1.67;1.00;;;;;;;;;;5097733;27;20053;-63
2023/07/30 09:46:50;;;;;;;2.38;1.23;;;;;;;;;;5097664;27;20116;-61
2023/07/30 09:49:19;;;;;;;1.77;1.10;;;;;;;;;;5107641;27;20044;-61
2023/07/30 09:51:48;;;;;;;3.10;1.45;;;;;;;;;;5111154;27;20114;-62
2023/07/30 09:54:16;;;;;;;1.58;1.10;;;;;;;;;;5106920;28;20063;-64
2023/07/30 09:56:44;;;;;;;1.77;1.00;;;;;;;;;;5099486;28;20092;-61
2023/07/30 09:59:13;;;;;;;1.00;0.82;;;;;;;;;;5101695;27;20093;-62
2023/07/30 10:01:44;;;;;;;4.45;1.30;;;;;;;;;;5096610;28;20051;-61
2023/07/30 10:04:14;;;;;;;2.85;1.05;;;;;;;;;;5085615;28;20515;-65
2023/07/30 10:06:44;;;;;;;1.00;0.90;;;;;;;;;;5087393;28;20131;-63
2023/07/30 10:09:13;;;;;;;1.52;1.00;;;;;;;;;;5089605;28;20074;-64
2023/07/30 10:11:43;;;;;;;2.05;1.27;;;;;;;;;;5089027;28;20515;-60
2023/07/30 10:14:11;;;;;;;1.50;0.90;;;;;;;;;;5082325;28;20492;-70
2023/07/30 10:16:39;;;;;;;1.67;1.05;;;;;;;;;;5086017;28;20040;-61
2023/07/30 10:19:08;;;;;;;1.48;0.80;;;;;;;;;;5089056;28;20044;-70
2023/07/30 10:21:44;;;;;;;2.42;1.13;;;;;;;;;;5088496;28;20138;-64
2023/07/30 10:24:12;;;;;;;0.88;0.65;;;;;;;;;;5089654;28;20480;-64
2023/07/30 10:26:41;;;;;;;1.67;0.90;;;;;;;;;;5090083;28;20040;-63
2023/07/30 10:29:16;;;;;;;0.90;0.80;;;;;;;;;;5087873;28;20056;-60
2023/07/30 10:31:49;;;;;;;2.33;1.33;;;;;;;;;;5086442;28;20128;-61
2023/07/30 10:34:17;;;;;;;1.77;1.00;;;;;;;;;;5083782;28;20469;-61
2023/07/30 10:36:48;;;;;;;1.70;1.17;;;;;;;;;;5087064;28;20113;-61
2023/07/30 10:39:17;;;;;;;1.63;1.05;;;;;;;;;;5079869;28;20044;-64
2023/07/30 10:41:46;;;;;;;3.10;1.08;;;;;;;;;;5087236;28;20113;-62
2023/07/30 10:44:25;;;;;;;2.35;1.45;;;;;;;;;;5082338;28;20108;-61
2023/07/30 10:46:54;;;;;;;1.42;0.90;;;;;;;;;;5085689;28;20086;-62
2023/07/30 10:49:22;;;;;;;1.52;0.80;;;;;;;;;;5081783;28;20097;-64
2023/07/30 10:51:54;;;;;;;1.50;0.75;;;;;;;;;;5089504;28;20114;-61
2023/07/30 10:54:23;;;;;;;1.70;0.93;;;;;;;;;;5084255;28;20072;-62
2023/07/30 10:56:51;;;;;;;2.85;1.10;;;;;;;;;;5083673;28;20172;-64
2023/07/30 10:59:21;;;;;;;3.05;0.93;;;;;;;;;;5083264;28;20074;-61
2023/07/30 11:01:49;;;;;;;1.50;0.85;;;;;;;;;;5081044;28;20116;-61
2023/07/30 11:04:19;;;;;;;1.83;1.10;;;;;;;;;;5097486;28;20598;-62
2023/07/30 11:06:48;;;;;;;1.52;1.10;;;;;;;;;;5102235;28;20047;-62
2023/07/30 11:09:22;;;;;;;2.15;1.10;;;;;;;;;;5094349;28;20066;-62
2023/07/30 11:11:51;;;;;;;3.15;1.10;;;;;;;;;;5084249;28;20055;-60
2023/07/30 11:14:20;;;;;;;2.05;1.10;;;;;;;;;;5092546;27;20104;-67
2023/07/30 11:16:50;;;;;;;1.92;1.15;;;;;;;;;;5097781;28;20491;-66
2023/07/30 11:19:19;;;;;;;1.60;1.10;;;;;;;;;;5098110;28;20078;-62
2023/07/30 11:21:48;;;;;;;2.00;1.20;;;;;;;;;;5100187;28;20479;-61
2023/07/30 11:24:19;;;;;;;2.25;1.40;;;;;;;;;;5094439;28;20772;-69
2023/07/30 11:26:58;;;;;;;1.92;1.00;;;;;;;;;;5100505;27;20086;-62
2023/07/30 11:29:26;;;;;;;1.52;1.00;;;;;;;;;;5102942;28;20043;-63
2023/07/30 11:31:58;;;;;;;3.95;1.08;;;;;;;;;;5089699;28;20055;-63
2023/07/30 11:34:28;;;;;;;1.45;1.00;;;;;;;;;;5093463;28;20546;-64
2023/07/30 11:36:57;;;;;;;3.58;1.40;;;;;;;;;;5103029;28;20127;-64
2023/07/30 11:39:25;;;;;;;1.83;1.10;;;;;;;;;;5105475;28;20119;-60
2023/07/30 11:41:55;;;;;;;2.00;1.58;;;;;;;;;;5097732;28;20052;-62
2023/07/30 11:44:41;;;;;;;3.08;1.30;;;;;;;;;;5099646;28;20055;-62
2023/07/30 11:47:10;;;;;;;1.45;1.00;;;;;;;;;;5103276;28;20067;-69
2023/07/30 11:49:38;;;;;;;1.23;0.73;;;;;;;;;;5096408;28;20044;-69
2023/07/30 11:52:08;;;;;;;4.72;1.20;;;;;;;;;;5098162;28;20044;-63
2023/07/30 11:54:36;;;;;;;1.30;0.90;;;;;;;;;;5101476;28;20044;-64
2023/07/30 11:57:07;;;;;;;2.72;1.00;;;;;;;;;;5104995;28;20093;-61
2023/07/30 11:59:36;;;;;;;1.80;0.90;;;;;;;;;;5104090;28;20052;-62
2023/07/30 12:02:04;;;;;;;2.33;1.00;;;;;;;;;;5094918;28;20051;-64
2023/07/30 12:04:33;;;;;;;1.75;0.85;;;;;;;;;;5098426;28;20058;-63
2023/07/30 12:07:05;;;;;;;1.27;0.90;;;;;;;;;;5096715;28;20101;-62
2023/07/30 12:09:38;;;;;;;1.83;0.88;;;;;;;;;;5101357;28;20388;-63
2023/07/30 12:12:08;;;;;;;1.08;0.73;;;;;;;;;;5105502;28;20047;-62
2023/07/30 12:14:45;;;;;;;0.90;0.80;;;;;;;;;;5100667;28;20616;-62
2023/07/30 12:17:13;;;;;;;2.28;1.08;;;;;;;;;;5097617;28;21818;-62
2023/07/30 12:19:42;;;;;;;1.70;0.90;;;;;;;;;;5100299;28;20040;-62
2023/07/30 12:22:11;;;;;;;2.38;1.13;;;;;;;;;;5101231;28;20095;-62
2023/07/30 12:24:39;;;;;;;1.25;0.80;;;;;;;;;;5102580;28;20056;-65
2023/07/30 12:27:09;;;;;;;2.28;1.00;;;;;;;;;;5098414;28;20039;-63
2023/07/30 12:29:37;;;;;;;2.10;1.17;;;;;;;;;;5102040;28;20560;-64
2023/07/30 12:32:06;;;;;;;1.73;1.00;;;;;;;;;;5108398;28;20051;-63
2023/07/30 12:34:34;;;;;;;2.22;1.00;;;;;;;;;;5106823;28;20052;-65
2023/07/30 12:37:02;;;;;;;1.33;0.80;;;;;;;;;;5094536;28;20488;-62
2023/07/30 12:39:31;;;;;;;1.65;1.10;;;;;;;;;;5097161;28;20043;-62
2023/07/30 12:41:59;;;;;;;1.20;0.98;;;;;;;;;;5096758;28;20042;-63
2023/07/30 12:44:29;;;;;;;2.35;1.20;;;;;;;;;;5106574;27;20473;-62
2023/07/30 12:46:57;;;;;;;2.55;0.82;;;;;;;;;;5108994;28;20089;-61
2023/07/30 12:49:26;;;;;;;1.88;0.80;;;;;;;;;;5103207;28;20427;-63
2023/07/30 12:51:54;;;;;;;2.33;1.35;;;;;;;;;;5105689;27;20500;-63
2023/07/30 12:54:23;;;;;;;2.05;1.20;;;;;;;;;;5092413;27;20059;-71
2023/07/30 12:56:51;;;;;;;1.40;1.05;;;;;;;;;;5098811;28;20097;-62
2023/07/30 12:59:19;;;;;;;1.55;1.00;;;;;;;;;;5102374;28;20123;-62
2023/07/30 13:01:49;;;;;;;3.35;0.90;;;;;;;;;;5108635;28;20055;-64
2023/07/30 13:04:18;;;;;;;2.75;1.15;;;;;;;;;;5116611;27;20039;-64
2023/07/30 13:06:46;;;;;;;2.25;1.30;;;;;;;;;;5122142;27;20133;-63
2023/07/30 13:09:15;;;;;;;1.77;1.15;;;;;;;;;;5115651;27;20067;-65
2023/07/30 13:11:43;;;;;;;2.03;1.30;;;;;;;;;;5115720;27;20068;-61
2023/07/30 13:14:11;;;;;;;2.22;1.10;;;;;;;;;;5114507;27;20052;-60
2023/07/30 13:16:40;;;;;;;1.88;1.10;;;;;;;;;;5105994;27;20043;-64
2023/07/30 13:19:09;;;;;;;4.20;0.93;;;;;;;;;;5115569;27;20499;-62
2023/07/30 13:21:39;;;;;;;1.40;0.85;;;;;;;;;;5121483;27;20100;-62
2023/07/30 13:24:07;;;;;;;2.08;1.00;;;;;;;;;;5116044;27;20071;-64
2023/07/30 13:26:38;;;;;;;1.80;1.00;;;;;;;;;;5106086;27;20047;-66
2023/07/30 13:29:06;;;;;;;2.85;1.10;;;;;;;;;;5105971;27;20066;-63
2023/07/30 13:31:35;;;;;;;2.00;1.17;;;;;;;;;;5110070;27;20451;-63
2023/07/30 13:34:03;;;;;;;2.00;1.15;;;;;;;;;;5118882;27;20049;-63
2023/07/30 13:36:33;;;;;;;2.97;1.27;;;;;;;;;;5123122;27;20454;-61
2023/07/30 13:39:01;;;;;;;1.40;0.85;;;;;;;;;;5108202;27;20050;-65
2023/07/30 13:41:30;;;;;;;1.98;1.05;;;;;;;;;;5122195;27;20043;-62
2023/07/30 13:43:58;;;;;;;2.67;1.30;;;;;;;;;;5106896;27;20104;-61
2023/07/30 13:46:26;;;;;;;2.28;1.27;;;;;;;;;;5117844;27;20123;-62
2023/07/30 13:48:55;;;;;;;2.88;1.23;;;;;;;;;;5116232;27;20039;-61
2023/07/30 13:51:23;;;;;;;4.53;1.52;;;;;;;;;;5110889;27;20051;-62
2023/07/30 13:53:53;;;;;;;4.50;1.15;;;;;;;;;;5111882;27;20508;-61
2023/07/30 13:56:21;;;;;;;3.28;1.55;;;;;;;;;;5109802;27;20088;-61
2023/07/30 13:58:50;;;;;;;3.83;1.40;;;;;;;;;;5115240;27;20092;-63
2023/07/30 14:01:18;;;;;;;1.80;1.35;;;;;;;;;;5119216;27;20124;-60
2023/07/30 14:03:47;;;;;;;2.90;1.85;;;;;;;;;;5116908;27;20089;-65
2023/07/30 14:06:15;;;;;;;1.77;1.30;;;;;;;;;;5114145;27;20123;-61
2023/07/30 14:08:44;;;;;;;2.60;1.40;;;;;;;;;;5103823;27;20040;-69
2023/07/30 14:11:14;;;;;;;1.95;1.08;;;;;;;;;;5111584;27;20112;-62
2023/07/30 14:13:42;;;;;;;3.72;1.42;;;;;;;;;;5111099;27;20063;-60
2023/07/30 14:16:11;;;;;;;2.38;1.10;;;;;;;;;;5101908;27;20156;-64
2023/07/30 14:18:39;;;;;;;2.78;1.35;;;;;;;;;;5108048;27;20047;-66
2023/07/30 14:21:08;;;;;;;1.95;1.20;;;;;;;;;;5117062;27;20468;-61
2023/07/30 14:23:36;;;;;;;1.50;1.08;;;;;;;;;;5108693;27;20105;-64
2023/07/30 14:26:05;;;;;;;2.22;1.23;;;;;;;;;;5117923;27;20453;-61
2023/07/30 14:28:34;;;;;;;2.13;1.35;;;;;;;;;;5113060;27;20043;-61
2023/07/30 14:31:03;;;;;;;1.75;1.33;;;;;;;;;;5110301;27;20058;-61
2023/07/30 14:33:31;;;;;;;2.45;1.20;;;;;;;;;;5108976;27;20082;-63
2023/07/30 14:36:00;;;;;;;2.80;1.83;;;;;;;;;;5112859;27;20039;-62
2023/07/30 14:38:28;;;;;;;3.25;1.10;;;;;;;;;;5112442;27;20108;-62
2023/07/30 14:40:57;;;;;;;2.33;1.40;;;;;;;;;;5109492;27;20510;-62
2023/07/30 14:43:25;;;;;;;3.22;1.63;;;;;;;;;;5110746;27;20051;-62
2023/07/30 14:45:55;;;;;;;2.80;1.25;;;;;;;;;;5116150;27;20043;-62
2023/07/30 14:48:24;;;;;;;3.25;1.52;;;;;;;;;;5114291;27;20043;-64
2023/07/30 14:50:52;;;;;;;3.63;1.23;;;;;;;;;;5115676;27;20104;-64
2023/07/30 14:53:21;;;;;;;3.30;1.40;;;;;;;;;;5107634;27;20062;-62